sensor_id;sensor_type;location;lat;lon;timestamp;temperature;humidity
4429;DHT22;2227;47.810;8.810;2023-05-07T04:33:01;13.80;99.90
4429;DHT22;2227;47.810;8.810;2023-05-07T04:35:28;13.80;99.90
4429;DHT22;2227;47.810;8.810;2023-05-07T04:37:55;13.80;99.90
4429;DHT22;2227;47.810;8.810;2023-05-07T04:40:22;13.80;99.90
4429;DHT22;2227;47.810;8.810;2023-05-07T04:42:49;13.90;99.90
4429;DHT22;2227;47.810;8.810;2023-05-07T04:45:15;13.90;99.90
4429;DHT22;2227;47.810;8.810;2023-05-07T04:47:42;14.00;99.90
4429;DHT22;2227;47.810;8.810;2023-05-07T04:50:09;13.90;99.90
4429;DHT22;2227;47.810;8.810;2023-05-07T04:52:37;14.00;99.90
4429;DHT22;2227;47.810;8.810;2023-05-07T04:55:04;14.10;99.90
4429;DHT22;2227;47.810;8.810;2023-05-07T04:57:31;14.20;99.90
4429;DHT22;2227;47.810;8.810;2023-05-07T04:59:58;14.20;99.90
4429;DHT22;2227;47.810;8.810;2023-05-07T05:02:24;14.20;99.90
4429;DHT22;2227;47.810;8.810;2023-05-07T05:04:51;14.30;99.90
4429;DHT22;2227;47.810;8.810;2023-05-07T05:07:17;14.30;99.90
4429;DHT22;2227;47.810;8.810;2023-05-07T05:09:44;14.40;99.90
4429;DHT22;2227;47.810;8.810;2023-05-07T05:12:11;14.50;99.90
4429;DHT22;2227;47.810;8.810;2023-05-07T05:14:38;14.60;99.90
4429;DHT22;2227;47.810;8.810;2023-05-07T05:17:04;14.60;99.90
4429;DHT22;2227;47.810;8.810;2023-05-07T05:19:31;14.70;99.90
4429;DHT22;2227;47.810;8.810;2023-05-07T05:21:58;14.80;99.90
4429;DHT22;2227;47.810;8.810;2023-05-07T05:24:24;14.90;99.90
4429;DHT22;2227;47.810;8.810;2023-05-07T05:26:53;15.00;99.90
4429;DHT22;2227;47.810;8.810;2023-05-07T05:29:20;15.10;99.90
4429;DHT22;2227;47.810;8.810;2023-05-07T05:31:46;15.30;99.90
4429;DHT22;2227;47.810;8.810;2023-05-07T05:34:13;15.40;99.90
4429;DHT22;2227;47.810;8.810;2023-05-07T05:36:40;15.50;99.90
4429;DHT22;2227;47.810;8.810;2023-05-07T05:39:07;15.70;99.90
4429;DHT22;2227;47.810;8.810;2023-05-07T05:41:35;15.80;99.90
4429;DHT22;2227;47.810;8.810;2023-05-07T05:44:01;15.90;99.90
4429;DHT22;2227;47.810;8.810;2023-05-07T05:46:28;16.10;99.90
4429;DHT22;2227;47.810;8.810;2023-05-07T05:48:55;16.20;99.90
4429;DHT22;2227;47.810;8.810;2023-05-07T05:51:21;16.30;99.90
4429;DHT22;2227;47.810;8.810;2023-05-07T05:53:48;16.50;99.90
4429;DHT22;2227;47.810;8.810;2023-05-07T05:56:15;16.60;99.90
4429;DHT22;2227;47.810;8.810;2023-05-07T05:58:42;16.60;99.90
4429;DHT22;2227;47.810;8.810;2023-05-07T06:01:09;16.70;99.90
4429;DHT22;2227;47.810;8.810;2023-05-07T06:03:36;16.80;99.90
4429;DHT22;2227;47.810;8.810;2023-05-07T06:06:03;17.00;99.90
4429;DHT22;2227;47.810;8.810;2023-05-07T06:08:29;16.60;99.90
4429;DHT22;2227;47.810;8.810;2023-05-07T06:10:56;16.40;99.90
4429;DHT22;2227;47.810;8.810;2023-05-07T06:13:23;16.20;99.90
4429;DHT22;2227;47.810;8.810;2023-05-07T06:15:52;16.20;99.90
4429;DHT22;2227;47.810;8.810;2023-05-07T06:18:18;16.10;99.90
4429;DHT22;2227;47.810;8.810;2023-05-07T06:20:45;16.10;99.90
4429;DHT22;2227;47.810;8.810;2023-05-07T06:23:12;16.10;99.90
4429;DHT22;2227;47.810;8.810;2023-05-07T06:25:48;16.20;99.90
4429;DHT22;2227;47.810;8.810;2023-05-07T06:28:16;16.20;99.90
4429;DHT22;2227;47.810;8.810;2023-05-07T06:30:42;16.20;99.90
4429;DHT22;2227;47.810;8.810;2023-05-07T06:33:09;16.20;99.90
4429;DHT22;2227;47.810;8.810;2023-05-07T06:35:36;16.20;99.90
4429;DHT22;2227;47.810;8.810;2023-05-07T06:38:02;16.30;99.90
4429;DHT22;2227;47.810;8.810;2023-05-07T06:40:29;16.30;99.90
4429;DHT22;2227;47.810;8.810;2023-05-07T06:42:56;16.40;99.90
4429;DHT22;2227;47.810;8.810;2023-05-07T06:45:22;16.50;99.90
4429;DHT22;2227;47.810;8.810;2023-05-07T06:47:50;16.50;99.90
4429;DHT22;2227;47.810;8.810;2023-05-07T06:50:17;16.70;99.90
4429;DHT22;2227;47.810;8.810;2023-05-07T06:52:43;16.70;99.90
4429;DHT22;2227;47.810;8.810;2023-05-07T06:55:10;16.80;99.90
4429;DHT22;2227;47.810;8.810;2023-05-07T06:57:38;16.90;99.90
4429;DHT22;2227;47.810;8.810;2023-05-07T07:00:05;17.00;99.90
4429;DHT22;2227;47.810;8.810;2023-05-07T07:02:36;17.30;99.90
4429;DHT22;2227;47.810;8.810;2023-05-07T07:05:03;17.60;99.90
4429;DHT22;2227;47.810;8.810;2023-05-07T07:07:30;17.80;99.90
4429;DHT22;2227;47.810;8.810;2023-05-07T07:09:57;18.10;99.90
4429;DHT22;2227;47.810;8.810;2023-05-07T07:12:23;18.30;99.90
4429;DHT22;2227;47.810;8.810;2023-05-07T07:14:52;18.50;99.90
4429;DHT22;2227;47.810;8.810;2023-05-07T07:17:20;18.80;99.90
4429;DHT22;2227;47.810;8.810;2023-05-07T07:19:47;19.00;99.90
4429;DHT22;2227;47.810;8.810;2023-05-07T07:22:14;19.10;99.90
4429;DHT22;2227;47.810;8.810;2023-05-07T07:24:40;19.20;99.90
4429;DHT22;2227;47.810;8.810;2023-05-07T07:27:07;19.20;99.90
4429;DHT22;2227;47.810;8.810;2023-05-07T07:29:34;19.10;99.90
4429;DHT22;2227;47.810;8.810;2023-05-07T07:32:01;19.30;99.90
4429;DHT22;2227;47.810;8.810;2023-05-07T07:34:27;19.40;99.90
4429;DHT22;2227;47.810;8.810;2023-05-07T07:36:54;19.60;99.90
4429;DHT22;2227;47.810;8.810;2023-05-07T07:39:21;19.70;99.90
4429;DHT22;2227;47.810;8.810;2023-05-07T07:41:48;19.80;99.90
4429;DHT22;2227;47.810;8.810;2023-05-07T07:44:14;19.90;99.90
4429;DHT22;2227;47.810;8.810;2023-05-07T07:46:42;20.10;99.90
4429;DHT22;2227;47.810;8.810;2023-05-07T07:49:09;20.30;99.90
4429;DHT22;2227;47.810;8.810;2023-05-07T07:51:35;20.40;99.90
4429;DHT22;2227;47.810;8.810;2023-05-07T07:54:02;20.50;99.90
4429;DHT22;2227;47.810;8.810;2023-05-07T07:56:29;20.70;99.90
4429;DHT22;2227;47.810;8.810;2023-05-07T07:58:56;20.70;99.90
4429;DHT22;2227;47.810;8.810;2023-05-07T08:01:22;20.80;99.90
4429;DHT22;2227;47.810;8.810;2023-05-07T08:03:49;20.60;99.90
4429;DHT22;2227;47.810;8.810;2023-05-07T08:06:16;20.60;99.90
4429;DHT22;2227;47.810;8.810;2023-05-07T08:08:43;20.70;99.90
4429;DHT22;2227;47.810;8.810;2023-05-07T08:11:10;20.60;99.90
4429;DHT22;2227;47.810;8.810;2023-05-07T08:13:37;20.70;99.90
4429;DHT22;2227;47.810;8.810;2023-05-07T08:16:05;20.50;99.90
4429;DHT22;2227;47.810;8.810;2023-05-07T08:18:31;20.20;99.90
4429;DHT22;2227;47.810;8.810;2023-05-07T08:20:58;20.10;99.90
4429;DHT22;2227;47.810;8.810;2023-05-07T08:23:25;20.10;99.90
4429;DHT22;2227;47.810;8.810;2023-05-07T08:25:53;20.30;99.90
4429;DHT22;2227;47.810;8.810;2023-05-07T08:28:20;20.30;99.90
4429;DHT22;2227;47.810;8.810;2023-05-07T08:30:47;20.50;99.90
4429;DHT22;2227;47.810;8.810;2023-05-07T08:33:14;20.60;99.90
4429;DHT22;2227;47.810;8.810;2023-05-07T08:35:41;20.70;99.90
4429;DHT22;2227;47.810;8.810;2023-05-07T08:38:07;20.90;99.90
4429;DHT22;2227;47.810;8.810;2023-05-07T08:40:38;21.20;99.90
4429;DHT22;2227;47.810;8.810;2023-05-07T08:43:05;21.50;99.90
4429;DHT22;2227;47.810;8.810;2023-05-07T08:45:33;21.50;99.90
4429;DHT22;2227;47.810;8.810;2023-05-07T08:48:02;21.50;99.90
4429;DHT22;2227;47.810;8.810;2023-05-07T08:50:29;21.30;99.90
4429;DHT22;2227;47.810;8.810;2023-05-07T08:52:56;21.10;99.90
4429;DHT22;2227;47.810;8.810;2023-05-07T08:55:24;21.30;99.90
4429;DHT22;2227;47.810;8.810;2023-05-07T08:57:51;21.80;99.90
4429;DHT22;2227;47.810;8.810;2023-05-07T09:00:19;22.00;99.90
4429;DHT22;2227;47.810;8.810;2023-05-07T09:02:46;22.20;99.90
4429;DHT22;2227;47.810;8.810;2023-05-07T09:05:13;22.60;99.90
4429;DHT22;2227;47.810;8.810;2023-05-07T09:07:40;23.00;99.90
4429;DHT22;2227;47.810;8.810;2023-05-07T09:10:07;23.40;99.90
4429;DHT22;2227;47.810;8.810;2023-05-07T09:12:34;23.90;99.90
4429;DHT22;2227;47.810;8.810;2023-05-07T09:15:02;24.60;99.90
4429;DHT22;2227;47.810;8.810;2023-05-07T09:17:30;25.00;99.90
4429;DHT22;2227;47.810;8.810;2023-05-07T09:19:56;25.20;99.90
4429;DHT22;2227;47.810;8.810;2023-05-07T09:22:28;25.30;99.90
4429;DHT22;2227;47.810;8.810;2023-05-07T09:24:54;25.30;99.40
4429;DHT22;2227;47.810;8.810;2023-05-07T09:27:21;25.30;99.00
4429;DHT22;2227;47.810;8.810;2023-05-07T09:29:47;25.90;98.40
4429;DHT22;2227;47.810;8.810;2023-05-07T09:32:14;26.50;96.90
4429;DHT22;2227;47.810;8.810;2023-05-07T09:34:41;26.80;95.80
4429;DHT22;2227;47.810;8.810;2023-05-07T09:37:08;26.70;96.10
4429;DHT22;2227;47.810;8.810;2023-05-07T09:39:39;26.70;95.20
4429;DHT22;2227;47.810;8.810;2023-05-07T09:42:07;27.00;95.10
4429;DHT22;2227;47.810;8.810;2023-05-07T09:44:34;26.80;94.20
4429;DHT22;2227;47.810;8.810;2023-05-07T09:47:05;26.00;95.40
4429;DHT22;2227;47.810;8.810;2023-05-07T09:49:35;26.10;95.30
4429;DHT22;2227;47.810;8.810;2023-05-07T09:52:04;26.30;94.80
4429;DHT22;2227;47.810;8.810;2023-05-07T09:54:36;26.30;94.20
4429;DHT22;2227;47.810;8.810;2023-05-07T09:57:05;26.50;93.80
4429;DHT22;2227;47.810;8.810;2023-05-07T09:59:34;26.40;93.80
4429;DHT22;2227;47.810;8.810;2023-05-07T10:02:03;26.20;94.10
4429;DHT22;2227;47.810;8.810;2023-05-07T10:04:31;25.90;93.60
4429;DHT22;2227;47.810;8.810;2023-05-07T10:06:59;25.70;94.70
4429;DHT22;2227;47.810;8.810;2023-05-07T10:09:26;26.10;94.60
4429;DHT22;2227;47.810;8.810;2023-05-07T10:11:53;26.70;93.30
4429;DHT22;2227;47.810;8.810;2023-05-07T10:14:21;26.60;92.30
4429;DHT22;2227;47.810;8.810;2023-05-07T10:16:48;26.70;92.10
4429;DHT22;2227;47.810;8.810;2023-05-07T10:19:15;26.40;93.10
4429;DHT22;2227;47.810;8.810;2023-05-07T10:21:51;25.90;94.00
4429;DHT22;2227;47.810;8.810;2023-05-07T10:24:26;26.10;93.50
4429;DHT22;2227;47.810;8.810;2023-05-07T10:26:53;26.40;92.80
4429;DHT22;2227;47.810;8.810;2023-05-07T10:29:25;26.00;93.20
4429;DHT22;2227;47.810;8.810;2023-05-07T10:35:10;27.90;91.40
4429;DHT22;2227;47.810;8.810;2023-05-07T10:37:39;28.80;90.40
4429;DHT22;2227;47.810;8.810;2023-05-07T10:40:06;29.10;86.80
4429;DHT22;2227;47.810;8.810;2023-05-07T10:42:34;28.80;86.00
4429;DHT22;2227;47.810;8.810;2023-05-07T10:45:14;28.60;86.20
4429;DHT22;2227;47.810;8.810;2023-05-07T10:51:20;27.40;89.70
4429;DHT22;2227;47.810;8.810;2023-05-07T10:53:47;26.50;91.00
4429;DHT22;2227;47.810;8.810;2023-05-07T10:58:43;25.70;93.20
4429;DHT22;2227;47.810;8.810;2023-05-07T11:01:10;26.00;92.80
4429;DHT22;2227;47.810;8.810;2023-05-07T11:04:14;25.70;92.50
4429;DHT22;2227;47.810;8.810;2023-05-07T11:06:41;25.70;92.90
4429;DHT22;2227;47.810;8.810;2023-05-07T11:09:07;25.90;92.00
4429;DHT22;2227;47.810;8.810;2023-05-07T11:11:48;26.00;92.50
4429;DHT22;2227;47.810;8.810;2023-05-07T11:14:43;25.70;92.70
4429;DHT22;2227;47.810;8.810;2023-05-07T11:17:10;25.90;92.80
4429;DHT22;2227;47.810;8.810;2023-05-07T11:19:53;25.40;93.00
4429;DHT22;2227;47.810;8.810;2023-05-07T11:22:35;24.80;94.50
4429;DHT22;2227;47.810;8.810;2023-05-07T11:25:03;24.60;95.00
4429;DHT22;2227;47.810;8.810;2023-05-07T11:27:30;25.00;94.80
4429;DHT22;2227;47.810;8.810;2023-05-07T11:29:58;25.70;93.90
4429;DHT22;2227;47.810;8.810;2023-05-07T11:32:27;26.70;92.70
4429;DHT22;2227;47.810;8.810;2023-05-07T11:34:58;27.30;91.50
4429;DHT22;2227;47.810;8.810;2023-05-07T11:37:26;27.60;90.90
4429;DHT22;2227;47.810;8.810;2023-05-07T11:40:06;27.50;91.50
4429;DHT22;2227;47.810;8.810;2023-05-07T11:42:36;27.00;91.20
4429;DHT22;2227;47.810;8.810;2023-05-07T11:45:04;26.60;91.80
4429;DHT22;2227;47.810;8.810;2023-05-07T11:47:32;26.40;92.80
4429;DHT22;2227;47.810;8.810;2023-05-07T11:50:07;26.10;92.80
4429;DHT22;2227;47.810;8.810;2023-05-07T11:52:35;25.80;93.40
4429;DHT22;2227;47.810;8.810;2023-05-07T11:55:02;25.40;94.10
4429;DHT22;2227;47.810;8.810;2023-05-07T11:57:33;24.90;94.30
4429;DHT22;2227;47.810;8.810;2023-05-07T12:00:00;25.10;94.20
4429;DHT22;2227;47.810;8.810;2023-05-07T12:02:28;24.80;94.90
4429;DHT22;2227;47.810;8.810;2023-05-07T12:04:55;24.10;95.40
4429;DHT22;2227;47.810;8.810;2023-05-07T12:07:24;24.00;96.60
4429;DHT22;2227;47.810;8.810;2023-05-07T12:09:52;24.20;97.10
4429;DHT22;2227;47.810;8.810;2023-05-07T12:12:18;24.30;96.60
4429;DHT22;2227;47.810;8.810;2023-05-07T12:14:46;24.00;96.90
4429;DHT22;2227;47.810;8.810;2023-05-07T12:17:13;24.00;97.10
4429;DHT22;2227;47.810;8.810;2023-05-07T12:19:43;24.00;97.40
4429;DHT22;2227;47.810;8.810;2023-05-07T12:22:11;23.90;97.70
4429;DHT22;2227;47.810;8.810;2023-05-07T12:24:46;23.90;97.60
4429;DHT22;2227;47.810;8.810;2023-05-07T12:27:14;23.60;98.00
4429;DHT22;2227;47.810;8.810;2023-05-07T12:29:46;23.40;98.80
4429;DHT22;2227;47.810;8.810;2023-05-07T12:32:17;23.30;99.50
4429;DHT22;2227;47.810;8.810;2023-05-07T12:34:44;23.40;99.00
4429;DHT22;2227;47.810;8.810;2023-05-07T12:37:12;23.40;99.30
4429;DHT22;2227;47.810;8.810;2023-05-07T12:39:49;23.40;98.80
4429;DHT22;2227;47.810;8.810;2023-05-07T12:42:16;23.10;99.50
4429;DHT22;2227;47.810;8.810;2023-05-07T12:44:46;23.30;99.60
4429;DHT22;2227;47.810;8.810;2023-05-07T12:47:14;23.50;98.70
4429;DHT22;2227;47.810;8.810;2023-05-07T12:49:42;23.60;98.70
4429;DHT22;2227;47.810;8.810;2023-05-07T12:52:11;24.00;98.20
4429;DHT22;2227;47.810;8.810;2023-05-07T12:54:38;24.30;92.40
4429;DHT22;2227;47.810;8.810;2023-05-07T12:57:07;24.40;91.60
4429;DHT22;2227;47.810;8.810;2023-05-07T12:59:39;24.60;91.50
4429;DHT22;2227;47.810;8.810;2023-05-07T13:02:07;24.80;91.20
4429;DHT22;2227;47.810;8.810;2023-05-07T13:04:34;25.10;90.40
4429;DHT22;2227;47.810;8.810;2023-05-07T13:07:02;25.30;88.50
4429;DHT22;2227;47.810;8.810;2023-05-07T13:09:29;25.40;89.10
4429;DHT22;2227;47.810;8.810;2023-05-07T13:11:58;25.60;88.30
4429;DHT22;2227;47.810;8.810;2023-05-07T13:14:27;25.80;87.30
4429;DHT22;2227;47.810;8.810;2023-05-07T13:16:54;26.10;86.00
4429;DHT22;2227;47.810;8.810;2023-05-07T13:19:21;26.40;86.70
4429;DHT22;2227;47.810;8.810;2023-05-07T13:21:47;26.60;85.70
4429;DHT22;2227;47.810;8.810;2023-05-07T13:24:16;26.90;85.00
4429;DHT22;2227;47.810;8.810;2023-05-07T13:26:42;27.10;82.50
4429;DHT22;2227;47.810;8.810;2023-05-07T13:29:11;27.30;81.50
4429;DHT22;2227;47.810;8.810;2023-05-07T13:31:38;27.30;80.40
4429;DHT22;2227;47.810;8.810;2023-05-07T13:34:09;27.30;77.80
4429;DHT22;2227;47.810;8.810;2023-05-07T13:36:36;27.30;78.20
4429;DHT22;2227;47.810;8.810;2023-05-07T13:39:05;27.00;77.40
4429;DHT22;2227;47.810;8.810;2023-05-07T13:41:32;26.80;78.90
4429;DHT22;2227;47.810;8.810;2023-05-07T13:43:59;26.80;81.00
4429;DHT22;2227;47.810;8.810;2023-05-07T13:46:26;26.70;82.40
4429;DHT22;2227;47.810;8.810;2023-05-07T13:48:53;26.40;85.00
4429;DHT22;2227;47.810;8.810;2023-05-07T13:51:19;26.40;86.90
4429;DHT22;2227;47.810;8.810;2023-05-07T13:53:47;26.40;87.70
4429;DHT22;2227;47.810;8.810;2023-05-07T13:56:14;26.30;88.00
4429;DHT22;2227;47.810;8.810;2023-05-07T13:58:41;26.10;88.90
4429;DHT22;2227;47.810;8.810;2023-05-07T14:01:22;25.90;90.60
4429;DHT22;2227;47.810;8.810;2023-05-07T14:03:48;25.70;90.50
4429;DHT22;2227;47.810;8.810;2023-05-07T14:06:15;25.50;90.90
4429;DHT22;2227;47.810;8.810;2023-05-07T14:08:42;25.40;91.40
4429;DHT22;2227;47.810;8.810;2023-05-07T14:11:09;25.30;91.50
4429;DHT22;2227;47.810;8.810;2023-05-07T14:13:35;25.00;91.10
4429;DHT22;2227;47.810;8.810;2023-05-07T14:16:04;24.90;91.10
4429;DHT22;2227;47.810;8.810;2023-05-07T14:18:31;24.90;91.10
4429;DHT22;2227;47.810;8.810;2023-05-07T14:20:57;24.80;91.10
4429;DHT22;2227;47.810;8.810;2023-05-07T14:23:24;24.70;91.80
4429;DHT22;2227;47.810;8.810;2023-05-07T14:25:53;24.60;92.20
4429;DHT22;2227;47.810;8.810;2023-05-07T14:28:20;24.60;92.60
4429;DHT22;2227;47.810;8.810;2023-05-07T14:30:47;24.60;92.80
4429;DHT22;2227;47.810;8.810;2023-05-07T14:33:13;24.60;92.90
4429;DHT22;2227;47.810;8.810;2023-05-07T14:35:40;24.70;92.40
4429;DHT22;2227;47.810;8.810;2023-05-07T14:38:07;24.80;92.00
4429;DHT22;2227;47.810;8.810;2023-05-07T14:40:34;24.90;91.70
4429;DHT22;2227;47.810;8.810;2023-05-07T14:43:01;24.90;89.70
4429;DHT22;2227;47.810;8.810;2023-05-07T14:45:27;24.90;85.10
4429;DHT22;2227;47.810;8.810;2023-05-07T14:47:54;24.80;83.70
4429;DHT22;2227;47.810;8.810;2023-05-07T14:50:22;24.70;83.20
4429;DHT22;2227;47.810;8.810;2023-05-07T14:52:48;24.60;85.10
4429;DHT22;2227;47.810;8.810;2023-05-07T14:55:15;24.70;87.90
4429;DHT22;2227;47.810;8.810;2023-05-07T14:57:42;24.70;88.30
4429;DHT22;2227;47.810;8.810;2023-05-07T15:00:09;24.60;90.50
4429;DHT22;2227;47.810;8.810;2023-05-07T15:02:36;24.50;91.30
4429;DHT22;2227;47.810;8.810;2023-05-07T15:05:03;24.40;91.30
4429;DHT22;2227;47.810;8.810;2023-05-07T15:07:30;24.40;91.40
4429;DHT22;2227;47.810;8.810;2023-05-07T15:09:59;24.60;91.50
4429;DHT22;2227;47.810;8.810;2023-05-07T15:12:25;24.70;91.20
4429;DHT22;2227;47.810;8.810;2023-05-07T15:14:52;24.90;90.90
4429;DHT22;2227;47.810;8.810;2023-05-07T15:17:19;25.00;90.80
4429;DHT22;2227;47.810;8.810;2023-05-07T15:19:45;25.20;90.50
4429;DHT22;2227;47.810;8.810;2023-05-07T15:22:12;25.40;90.60
4429;DHT22;2227;47.810;8.810;2023-05-07T15:24:40;25.10;90.40
4429;DHT22;2227;47.810;8.810;2023-05-07T15:27:07;25.00;90.90
4429;DHT22;2227;47.810;8.810;2023-05-07T15:29:34;24.80;91.00
4429;DHT22;2227;47.810;8.810;2023-05-07T15:32:00;24.50;91.30
4429;DHT22;2227;47.810;8.810;2023-05-07T15:34:27;24.30;91.90
4429;DHT22;2227;47.810;8.810;2023-05-07T15:36:55;24.10;92.20
4429;DHT22;2227;47.810;8.810;2023-05-07T15:39:23;24.00;92.40
4429;DHT22;2227;47.810;8.810;2023-05-07T15:41:50;23.90;92.80
4429;DHT22;2227;47.810;8.810;2023-05-07T15:44:17;23.80;92.70
4429;DHT22;2227;47.810;8.810;2023-05-07T15:46:43;23.70;92.20
4429;DHT22;2227;47.810;8.810;2023-05-07T15:49:10;23.50;92.50
4429;DHT22;2227;47.810;8.810;2023-05-07T15:51:37;23.30;93.40
4429;DHT22;2227;47.810;8.810;2023-05-07T15:54:04;23.20;93.10
4429;DHT22;2227;47.810;8.810;2023-05-07T15:56:31;23.00;93.10
4429;DHT22;2227;47.810;8.810;2023-05-07T15:58:59;22.80;93.40
4429;DHT22;2227;47.810;8.810;2023-05-07T16:01:26;22.80;93.60
4429;DHT22;2227;47.810;8.810;2023-05-07T16:03:53;22.70;93.80
4429;DHT22;2227;47.810;8.810;2023-05-07T16:06:19;22.70;93.70
4429;DHT22;2227;47.810;8.810;2023-05-07T16:08:46;22.70;93.90
4429;DHT22;2227;47.810;8.810;2023-05-07T16:11:13;22.60;94.30
4429;DHT22;2227;47.810;8.810;2023-05-07T16:13:40;22.50;94.60
4429;DHT22;2227;47.810;8.810;2023-05-07T16:16:07;22.50;94.60
4429;DHT22;2227;47.810;8.810;2023-05-07T16:18:34;22.20;94.90
4429;DHT22;2227;47.810;8.810;2023-05-07T16:21:02;22.00;95.20
4429;DHT22;2227;47.810;8.810;2023-05-07T16:23:29;21.70;95.60
4429;DHT22;2227;47.810;8.810;2023-05-07T16:25:56;21.50;95.80
4429;DHT22;2227;47.810;8.810;2023-05-07T16:28:23;21.50;96.30
4429;DHT22;2227;47.810;8.810;2023-05-07T16:30:51;21.30;96.20
4429;DHT22;2227;47.810;8.810;2023-05-07T16:33:18;21.20;96.30
4429;DHT22;2227;47.810;8.810;2023-05-07T16:35:51;21.10;96.70
4429;DHT22;2227;47.810;8.810;2023-05-07T16:38:18;20.90;96.60
4429;DHT22;2227;47.810;8.810;2023-05-07T16:40:44;20.80;97.30
4429;DHT22;2227;47.810;8.810;2023-05-07T16:43:11;20.90;97.20
4429;DHT22;2227;47.810;8.810;2023-05-07T16:48:10;20.90;96.70
4429;DHT22;2227;47.810;8.810;2023-05-07T16:50:37;20.90;96.40
4429;DHT22;2227;47.810;8.810;2023-05-07T16:53:04;20.90;95.90
4429;DHT22;2227;47.810;8.810;2023-05-07T16:55:31;21.00;95.80
4429;DHT22;2227;47.810;8.810;2023-05-07T16:58:05;20.90;96.20
4429;DHT22;2227;47.810;8.810;2023-05-07T17:00:31;21.00;96.80
4429;DHT22;2227;47.810;8.810;2023-05-07T17:03:16;20.90;97.10
4429;DHT22;2227;47.810;8.810;2023-05-07T17:05:43;20.90;97.60
4429;DHT22;2227;47.810;8.810;2023-05-07T17:08:09;20.80;98.50
4429;DHT22;2227;47.810;8.810;2023-05-07T17:10:36;20.60;99.10
4429;DHT22;2227;47.810;8.810;2023-05-07T17:13:03;20.40;99.50
4429;DHT22;2227;47.810;8.810;2023-05-07T17:15:29;20.10;99.90
4429;DHT22;2227;47.810;8.810;2023-05-07T17:17:56;20.00;99.90
4429;DHT22;2227;47.810;8.810;2023-05-07T17:20:23;19.90;99.90
4429;DHT22;2227;47.810;8.810;2023-05-07T17:22:50;19.70;99.90
4429;DHT22;2227;47.810;8.810;2023-05-07T17:25:17;19.60;99.90
4429;DHT22;2227;47.810;8.810;2023-05-07T17:27:44;19.60;99.90
4429;DHT22;2227;47.810;8.810;2023-05-07T17:30:11;19.40;99.90
4429;DHT22;2227;47.810;8.810;2023-05-07T17:32:39;19.20;99.90
4429;DHT22;2227;47.810;8.810;2023-05-07T17:35:06;19.10;99.90
4429;DHT22;2227;47.810;8.810;2023-05-07T17:37:32;18.90;99.90
4429;DHT22;2227;47.810;8.810;2023-05-07T17:40:00;18.80;99.90
4429;DHT22;2227;47.810;8.810;2023-05-07T17:42:27;18.50;99.90
4429;DHT22;2227;47.810;8.810;2023-05-07T17:44:53;18.10;99.90
4429;DHT22;2227;47.810;8.810;2023-05-07T17:47:21;17.90;99.90
4429;DHT22;2227;47.810;8.810;2023-05-07T17:49:47;17.80;99.90
4429;DHT22;2227;47.810;8.810;2023-05-07T17:52:14;17.70;99.90
4429;DHT22;2227;47.810;8.810;2023-05-07T17:54:41;17.60;99.90
4429;DHT22;2227;47.810;8.810;2023-05-07T17:57:07;17.50;99.90
4429;DHT22;2227;47.810;8.810;2023-05-07T17:59:34;17.50;99.90
4429;DHT22;2227;47.810;8.810;2023-05-07T18:02:01;17.40;99.90
4429;DHT22;2227;47.810;8.810;2023-05-07T18:04:27;17.50;99.90
4429;DHT22;2227;47.810;8.810;2023-05-07T18:06:54;17.50;99.90
4429;DHT22;2227;47.810;8.810;2023-05-07T18:09:22;17.60;99.90
4429;DHT22;2227;47.810;8.810;2023-05-07T18:11:49;17.60;99.90
4429;DHT22;2227;47.810;8.810;2023-05-07T18:14:15;17.60;99.90
4429;DHT22;2227;47.810;8.810;2023-05-07T18:16:42;17.60;99.90
4429;DHT22;2227;47.810;8.810;2023-05-07T18:19:09;17.60;99.90
4429;DHT22;2227;47.810;8.810;2023-05-07T18:21:37;17.50;99.90
4429;DHT22;2227;47.810;8.810;2023-05-07T18:24:03;17.50;99.90
4429;DHT22;2227;47.810;8.810;2023-05-07T18:26:30;17.50;99.90
4429;DHT22;2227;47.810;8.810;2023-05-07T18:28:57;17.40;99.90
4429;DHT22;2227;47.810;8.810;2023-05-07T18:31:23;17.40;99.90
4429;DHT22;2227;47.810;8.810;2023-05-07T18:33:51;17.40;99.90
4429;DHT22;2227;47.810;8.810;2023-05-07T18:36:18;17.30;99.90
4429;DHT22;2227;47.810;8.810;2023-05-07T18:38:44;17.30;99.90
4429;DHT22;2227;47.810;8.810;2023-05-07T18:41:11;17.00;99.90
4429;DHT22;2227;47.810;8.810;2023-05-07T18:43:38;16.90;99.90
4429;DHT22;2227;47.810;8.810;2023-05-07T18:46:05;17.00;99.90
4429;DHT22;2227;47.810;8.810;2023-05-07T18:48:32;16.90;99.90
4429;DHT22;2227;47.810;8.810;2023-05-07T18:50:58;16.90;99.90
4429;DHT22;2227;47.810;8.810;2023-05-07T18:53:25;16.90;99.90
4429;DHT22;2227;47.810;8.810;2023-05-07T18:55:54;16.70;99.90
4429;DHT22;2227;47.810;8.810;2023-05-07T18:58:20;16.50;99.90
4429;DHT22;2227;47.810;8.810;2023-05-07T19:00:48;16.30;99.90
4429;DHT22;2227;47.810;8.810;2023-05-07T19:03:15;16.20;99.90
4429;DHT22;2227;47.810;8.810;2023-05-07T19:05:43;16.10;99.90
4429;DHT22;2227;47.810;8.810;2023-05-07T19:08:10;16.00;99.90
4429;DHT22;2227;47.810;8.810;2023-05-07T19:10:37;15.80;99.90
4429;DHT22;2227;47.810;8.810;2023-05-07T19:13:04;15.70;99.90
4429;DHT22;2227;47.810;8.810;2023-05-07T19:15:31;15.70;99.90
4429;DHT22;2227;47.810;8.810;2023-05-07T19:17:57;15.70;99.90
4429;DHT22;2227;47.810;8.810;2023-05-07T19:20:24;15.70;99.90
4429;DHT22;2227;47.810;8.810;2023-05-07T19:22:51;15.60;99.90
4429;DHT22;2227;47.810;8.810;2023-05-07T19:25:18;15.60;99.90
4429;DHT22;2227;47.810;8.810;2023-05-07T19:27:44;15.60;99.90
4429;DHT22;2227;47.810;8.810;2023-05-07T19:30:13;15.40;99.90
4429;DHT22;2227;47.810;8.810;2023-05-07T19:32:40;15.30;99.90
4429;DHT22;2227;47.810;8.810;2023-05-07T19:35:07;15.20;99.90
4429;DHT22;2227;47.810;8.810;2023-05-07T19:37:34;15.20;99.90
4429;DHT22;2227;47.810;8.810;2023-05-07T19:40:01;15.10;99.90
4429;DHT22;2227;47.810;8.810;2023-05-07T19:42:32;15.10;99.90
4429;DHT22;2227;47.810;8.810;2023-05-07T19:44:58;15.10;99.90
4429;DHT22;2227;47.810;8.810;2023-05-07T19:47:25;15.10;99.90
4429;DHT22;2227;47.810;8.810;2023-05-07T19:49:52;15.10;99.90
4429;DHT22;2227;47.810;8.810;2023-05-07T19:52:19;15.00;99.90
4429;DHT22;2227;47.810;8.810;2023-05-07T19:54:45;15.10;99.90
4429;DHT22;2227;47.810;8.810;2023-05-07T19:57:12;15.10;99.90
4429;DHT22;2227;47.810;8.810;2023-05-07T19:59:39;15.20;99.90
4429;DHT22;2227;47.810;8.810;2023-05-07T20:02:06;15.40;99.90
4429;DHT22;2227;47.810;8.810;2023-05-07T20:04:33;15.40;99.90
4429;DHT22;2227;47.810;8.810;2023-05-07T20:07:04;15.50;99.90
4429;DHT22;2227;47.810;8.810;2023-05-07T20:09:31;15.50;99.90
4429;DHT22;2227;47.810;8.810;2023-05-07T20:11:57;15.50;99.90
4429;DHT22;2227;47.810;8.810;2023-05-07T20:14:25;15.40;99.90
4429;DHT22;2227;47.810;8.810;2023-05-07T20:16:52;15.20;99.90
4429;DHT22;2227;47.810;8.810;2023-05-07T20:19:19;15.10;99.90
4429;DHT22;2227;47.810;8.810;2023-05-07T20:21:46;15.00;99.90
4429;DHT22;2227;47.810;8.810;2023-05-07T20:24:12;15.00;99.90
4429;DHT22;2227;47.810;8.810;2023-05-07T20:26:39;14.90;99.90
4429;DHT22;2227;47.810;8.810;2023-05-07T20:29:06;15.00;99.90
4429;DHT22;2227;47.810;8.810;2023-05-07T20:31:33;15.00;99.90
4429;DHT22;2227;47.810;8.810;2023-05-07T20:34:01;14.90;99.90
4429;DHT22;2227;47.810;8.810;2023-05-07T20:36:28;14.90;99.90
4429;DHT22;2227;47.810;8.810;2023-05-07T20:38:54;14.80;99.90
4429;DHT22;2227;47.810;8.810;2023-05-07T20:41:21;14.80;99.90
4429;DHT22;2227;47.810;8.810;2023-05-07T20:43:50;14.80;99.90
4429;DHT22;2227;47.810;8.810;2023-05-07T20:46:17;14.80;99.90
4429;DHT22;2227;47.810;8.810;2023-05-07T20:48:48;14.80;99.90